createdAt,value
2019-01-30T00:00:38.538Z,98500.48
2019-01-30T00:03:06.853Z,98497.97
2019-01-30T00:05:35.034Z,98481.54
2019-01-30T00:08:03.327Z,98479.02
2019-01-30T00:10:31.559Z,98476.41
2019-01-30T00:12:59.759Z,98476.81
2019-01-30T00:15:27.969Z,98468.00
2019-01-30T00:17:56.185Z,98460.29
2019-01-30T00:20:24.396Z,98452.33
2019-01-30T00:22:52.598Z,98453.05
2019-01-30T00:25:20.834Z,98451.03
2019-01-30T00:27:49.034Z,98446.89
2019-01-30T00:30:20.513Z,98437.77
2019-01-30T00:32:48.716Z,98439.53
2019-01-30T00:35:16.924Z,98432.73
2019-01-30T00:37:45.114Z,98435.97
2019-01-30T00:40:15.460Z,98427.16
2019-01-30T00:42:43.662Z,98420.16
2019-01-30T00:45:15.134Z,98416.22
2019-01-30T00:47:43.360Z,98406.77
2019-01-30T00:50:14.364Z,98410.84
2019-01-30T00:52:42.654Z,98410.02
2019-01-30T00:55:12.046Z,98406.25
2019-01-30T00:57:40.276Z,98397.65
2019-01-30T01:00:14.587Z,98390.85
2019-01-30T01:02:41.717Z,98383.74
2019-01-30T01:05:09.948Z,98374.03
2019-01-30T01:07:38.168Z,98378.20
2019-01-30T01:10:10.016Z,98374.73
2019-01-30T01:12:38.212Z,98366.58
2019-01-30T01:15:09.682Z,98358.77
2019-01-30T01:17:37.880Z,98354.69
2019-01-30T01:20:09.338Z,98349.66
2019-01-30T01:22:37.545Z,98350.67
2019-01-30T01:25:09.212Z,98354.44
2019-01-30T01:27:37.414Z,98361.34
2019-01-30T01:30:08.905Z,98363.25
2019-01-30T01:32:37.097Z,98356.45
2019-01-30T01:35:06.188Z,98356.86
2019-01-30T01:37:34.383Z,98354.75
2019-01-30T01:40:02.596Z,98352.38
2019-01-30T01:42:30.807Z,98349.31
2019-01-30T01:44:59.036Z,98337.69
2019-01-30T01:47:27.300Z,98322.87
2019-01-30T01:49:55.521Z,98322.87
2019-01-30T01:52:23.714Z,98315.73
2019-01-30T01:54:51.904Z,98316.58
2019-01-30T01:57:20.148Z,98311.55
2019-01-30T01:59:48.336Z,98304.21
2019-01-30T02:02:16.533Z,98297.24
2019-01-30T02:04:44.740Z,98293.03
2019-01-30T02:07:12.965Z,98277.77
2019-01-30T02:09:41.165Z,98268.25
2019-01-30T02:12:09.357Z,98273.69
2019-01-30T02:14:37.575Z,98265.53
2019-01-30T02:17:05.837Z,98253.17
2019-01-30T02:19:33.992Z,98247.32
2019-01-30T02:22:02.217Z,98242.42
2019-01-30T02:24:30.443Z,98236.34
2019-01-30T02:26:58.638Z,98227.89
2019-01-30T02:29:26.853Z,98222.45
2019-01-30T02:31:55.042Z,98221.09
2019-01-30T02:34:23.265Z,98224.11
2019-01-30T02:36:57.524Z,98216.37
2019-01-30T02:39:25.727Z,98217.48
2019-01-30T02:41:54.214Z,98208.11
2019-01-30T02:44:22.454Z,98211.34
2019-01-30T02:46:50.638Z,98212.59
2019-01-30T02:49:18.951Z,98206.95
2019-01-30T02:51:47.181Z,98195.74
2019-01-30T02:54:15.414Z,98200.23
2019-01-30T02:56:43.596Z,98196.39
2019-01-30T02:59:11.817Z,98203.90
2019-01-30T03:01:41.685Z,98202.75
2019-01-30T03:04:09.895Z,98201.39
2019-01-30T03:06:38.113Z,98198.09
2019-01-30T03:09:07.569Z,98195.44
2019-01-30T03:11:35.805Z,98184.27
2019-01-30T03:14:04.003Z,98172.34
2019-01-30T03:16:32.189Z,98176.86
2019-01-30T03:19:00.410Z,98170.06
2019-01-30T03:21:28.613Z,98160.99
2019-01-30T03:23:56.833Z,98154.91
2019-01-30T03:26:25.125Z,98161.84
2019-01-30T03:28:53.365Z,98162.82
2019-01-30T03:31:21.736Z,98158.48
2019-01-30T03:33:50.879Z,98152.33
2019-01-30T03:36:19.098Z,98151.31
2019-01-30T03:38:47.320Z,98145.06
2019-01-30T03:41:15.513Z,98138.61
2019-01-30T03:43:43.736Z,98144.59
2019-01-30T03:46:11.956Z,98145.95
2019-01-30T03:48:40.169Z,98157.84
2019-01-30T03:51:08.383Z,98144.25
2019-01-30T03:53:36.579Z,98144.25
2019-01-30T03:56:04.799Z,98141.53
2019-01-30T03:58:32.997Z,98137.66
2019-01-30T04:01:01.225Z,98148.33
2019-01-30T04:03:29.433Z,98144.69
2019-01-30T04:05:57.653Z,98141.33
2019-01-30T04:08:25.870Z,98139.80
2019-01-30T04:10:54.093Z,98131.72
2019-01-30T04:13:22.299Z,98131.92
2019-01-30T04:15:50.541Z,98139.22
2019-01-30T04:18:18.732Z,98136.84
2019-01-30T04:20:46.943Z,98126.89
2019-01-30T04:23:15.253Z,98135.15
2019-01-30T04:25:43.440Z,98130.87
2019-01-30T04:28:11.664Z,98137.15
2019-01-30T04:30:39.858Z,98129.91
2019-01-30T04:33:08.072Z,98127.53
2019-01-30T04:35:36.270Z,98135.05
2019-01-30T04:38:04.492Z,98130.66
2019-01-30T04:40:32.700Z,98121.25
2019-01-30T04:43:00.913Z,98120.20
2019-01-30T04:45:29.126Z,98120.95
2019-01-30T04:47:57.318Z,98125.44
2019-01-30T04:50:25.555Z,98125.33
2019-01-30T04:52:53.753Z,98117.48
2019-01-30T04:55:22.011Z,98120.41
2019-01-30T04:57:50.173Z,98118.54
2019-01-30T05:00:25.310Z,98118.84
2019-01-30T05:02:53.529Z,98102.44
2019-01-30T05:05:21.800Z,98104.10
2019-01-30T05:07:50.009Z,98104.95
2019-01-30T05:10:18.232Z,98103.59
2019-01-30T05:12:46.460Z,98102.54
2019-01-30T05:15:16.597Z,98099.82
2019-01-30T05:17:44.821Z,98102.13
2019-01-30T05:20:15.054Z,98099.82
2019-01-30T05:22:43.285Z,98096.27
2019-01-30T05:25:11.754Z,98096.27
2019-01-30T05:27:39.954Z,98091.27
2019-01-30T05:30:23.266Z,98073.47
2019-01-30T05:32:51.527Z,98074.22
2019-01-30T05:35:19.706Z,98071.81
2019-01-30T05:37:51.121Z,98066.88
2019-01-30T05:40:19.400Z,98065.42
2019-01-30T05:42:47.603Z,98071.81
2019-01-30T05:45:17.117Z,98068.67
2019-01-30T05:47:45.345Z,98057.50
2019-01-30T05:50:14.485Z,98051.66
2019-01-30T05:52:42.702Z,98051.02
2019-01-30T05:55:13.130Z,98050.92
2019-01-30T05:57:41.342Z,98048.00
2019-01-30T06:00:23.738Z,98038.27
2019-01-30T06:02:51.981Z,98038.14
2019-01-30T06:05:20.163Z,98050.58
2019-01-30T06:07:48.358Z,98040.25
2019-01-30T06:10:16.591Z,98031.35
2019-01-30T06:12:44.818Z,98034.28
2019-01-30T06:15:15.842Z,98026.86
2019-01-30T06:17:44.061Z,98030.00
2019-01-30T06:20:21.331Z,98023.54
2019-01-30T06:22:49.544Z,98023.20
2019-01-30T06:25:17.746Z,98017.47
2019-01-30T06:27:45.963Z,98014.65
2019-01-30T06:30:19.470Z,98000.11
2019-01-30T06:32:47.694Z,98001.59
2019-01-30T06:35:15.936Z,98004.39
2019-01-30T06:37:44.137Z,98011.19
2019-01-30T06:40:15.162Z,98007.23
2019-01-30T06:42:43.381Z,98005.45
2019-01-30T06:45:11.599Z,98009.83
2019-01-30T06:47:39.801Z,98006.39
2019-01-30T06:50:10.849Z,97998.14
2019-01-30T06:52:39.075Z,97980.14
2019-01-30T06:55:07.353Z,97978.27
2019-01-30T06:57:35.579Z,97975.66
2019-01-30T07:00:05.403Z,97980.36
2019-01-30T07:02:33.630Z,97988.52
2019-01-30T07:05:01.874Z,97984.34
2019-01-30T07:07:30.105Z,97982.26
2019-01-30T07:09:58.383Z,97981.50
2019-01-30T07:12:26.607Z,97988.63
2019-01-30T07:14:54.800Z,97990.94
2019-01-30T07:17:23.028Z,97995.52
2019-01-30T07:19:51.219Z,98002.62
2019-01-30T07:22:19.417Z,98006.18
2019-01-30T07:24:47.637Z,97994.06
2019-01-30T07:27:15.841Z,98000.52
2019-01-30T07:29:44.063Z,98008.80
2019-01-30T07:32:12.291Z,98015.39
2019-01-30T07:34:40.483Z,98010.47
2019-01-30T07:37:08.693Z,98014.63
2019-01-30T07:39:36.895Z,98020.07
2019-01-30T07:42:05.124Z,98012.97
2019-01-30T07:44:33.311Z,98018.11
2019-01-30T07:47:01.524Z,98020.83
2019-01-30T07:49:29.719Z,98021.84
2019-01-30T07:51:57.933Z,98020.28
2019-01-30T07:54:26.130Z,98030.00
2019-01-30T07:56:54.356Z,98029.05
2019-01-30T07:59:22.539Z,98025.92
2019-01-30T08:01:50.757Z,98035.55
2019-01-30T08:04:18.978Z,98038.98
2019-01-30T08:06:47.195Z,98045.36
2019-01-30T08:09:15.435Z,98044.33
2019-01-30T08:11:43.634Z,98044.33
2019-01-30T08:14:11.833Z,98046.00
2019-01-30T08:16:40.061Z,98050.79
2019-01-30T08:19:08.272Z,98057.07
2019-01-30T08:21:36.499Z,98053.20
2019-01-30T08:24:04.967Z,98056.86
2019-01-30T08:26:33.796Z,98060.09
2019-01-30T08:29:02.270Z,98060.30
2019-01-30T08:31:30.821Z,98064.50
2019-01-30T08:33:59.064Z,98062.60
2019-01-30T08:36:27.293Z,98063.75
2019-01-30T08:38:55.477Z,98066.38
2019-01-30T08:41:23.695Z,98077.13
2019-01-30T08:43:51.913Z,98075.78
2019-01-30T08:46:20.221Z,98066.80
2019-01-30T08:48:48.423Z,98056.24
2019-01-30T08:51:16.641Z,98063.88
2019-01-30T08:53:44.863Z,98067.00
2019-01-30T08:56:13.061Z,98065.98
2019-01-30T08:58:41.278Z,98064.49
2019-01-30T09:01:09.473Z,98068.91
2019-01-30T09:03:37.691Z,98078.21
2019-01-30T09:06:05.899Z,98073.20
2019-01-30T09:08:34.112Z,98070.92
2019-01-30T09:11:02.323Z,98068.20
2019-01-30T09:13:30.529Z,98065.62
2019-01-30T09:15:58.782Z,98071.36
2019-01-30T09:18:27.001Z,98065.08
2019-01-30T09:20:55.219Z,98064.86
2019-01-30T09:23:23.426Z,98068.53
2019-01-30T09:25:51.647Z,98066.23
2019-01-30T09:28:19.858Z,98070.83
2019-01-30T09:30:48.149Z,98068.54
2019-01-30T09:33:25.628Z,98072.11
2019-01-30T09:35:46.376Z,98078.98
2019-01-30T09:38:14.741Z,98083.39
2019-01-30T09:40:43.011Z,98083.41
2019-01-30T09:43:11.232Z,98078.19
2019-01-30T09:45:39.422Z,98080.15
2019-01-30T09:48:07.805Z,98077.77
2019-01-30T09:50:36.024Z,98089.16
2019-01-30T09:53:04.300Z,98085.08
2019-01-30T09:55:32.516Z,98088.64
2019-01-30T09:58:00.750Z,98091.77
2019-01-30T10:00:33.684Z,98098.67
2019-01-30T10:03:01.972Z,98096.05
2019-01-30T10:05:30.213Z,98101.82
2019-01-30T10:07:58.400Z,98101.28
2019-01-30T10:10:28.862Z,98101.69
2019-01-30T10:12:57.088Z,98104.33
2019-01-30T10:15:28.480Z,98107.05
2019-01-30T10:17:56.696Z,98113.52
2019-01-30T10:20:26.854Z,98115.20
2019-01-30T10:22:55.054Z,98116.45
2019-01-30T10:25:23.274Z,98120.73
2019-01-30T10:27:51.557Z,98119.48
2019-01-30T10:30:22.491Z,98120.11
2019-01-30T10:32:50.726Z,98122.62
2019-01-30T10:35:18.956Z,98121.60
2019-01-30T10:37:47.178Z,98119.91
2019-01-30T10:40:20.396Z,98116.34
2019-01-30T10:42:49.042Z,98120.75
2019-01-30T10:45:17.284Z,98116.25
2019-01-30T10:47:45.490Z,98123.46
2019-01-30T10:50:21.775Z,98115.09
2019-01-30T10:52:49.993Z,98124.20
2019-01-30T10:55:24.076Z,98122.97
2019-01-30T10:57:54.236Z,98118.55
2019-01-30T11:00:25.234Z,98114.27
2019-01-30T11:02:53.457Z,98120.63
2019-01-30T11:05:21.696Z,98120.98
2019-01-30T11:07:49.894Z,98120.34
2019-01-30T11:10:19.771Z,98121.60
2019-01-30T11:12:47.997Z,98125.46
2019-01-30T11:15:22.056Z,98120.24
2019-01-30T11:17:50.283Z,98126.70
2019-01-30T11:20:21.914Z,98116.16
2019-01-30T11:22:50.086Z,98121.25
2019-01-30T11:25:20.858Z,98119.34
2019-01-30T11:27:49.052Z,98114.76
2019-01-30T11:30:18.528Z,98116.44
2019-01-30T11:32:46.749Z,98113.84
2019-01-30T11:35:15.033Z,98109.02
2019-01-30T11:37:43.248Z,98111.53
2019-01-30T11:40:19.590Z,98129.84
2019-01-30T11:42:47.803Z,98117.09
2019-01-30T11:45:18.905Z,98119.69
2019-01-30T11:47:47.131Z,98109.66
2019-01-30T11:50:16.709Z,98115.09
2019-01-30T11:52:44.933Z,98118.11
2019-01-30T11:55:15.267Z,98113.43
2019-01-30T11:57:43.498Z,98122.73
2019-01-30T12:00:18.482Z,98129.12
2019-01-30T12:02:47.990Z,98127.14
2019-01-30T12:05:17.719Z,98125.98
2019-01-30T12:07:45.971Z,98128.50
2019-01-30T12:10:15.102Z,98140.94
2019-01-30T12:12:43.296Z,98134.45
2019-01-30T12:15:17.656Z,98126.30
2019-01-30T12:17:45.862Z,98139.89
2019-01-30T12:20:14.070Z,98128.29
2019-01-30T12:22:42.275Z,98138.53
2019-01-30T12:25:13.498Z,98138.22
2019-01-30T12:27:41.735Z,98154.23
2019-01-30T12:30:15.647Z,98149.41
2019-01-30T12:32:43.859Z,98153.59
2019-01-30T12:35:12.256Z,98164.57
2019-01-30T12:37:40.630Z,98158.70
2019-01-30T12:40:11.874Z,98158.91
2019-01-30T12:42:40.089Z,98164.45
2019-01-30T12:45:11.561Z,98168.73
2019-01-30T12:47:39.813Z,98168.84
2019-01-30T12:50:08.410Z,98175.53
2019-01-30T12:52:36.651Z,98169.59
2019-01-30T12:55:07.191Z,98185.36
2019-01-30T12:57:35.416Z,98171.56
2019-01-30T13:00:04.978Z,98170.20
2019-01-30T13:02:33.215Z,98174.16
2019-01-30T13:05:01.421Z,98190.67
2019-01-30T13:07:29.638Z,98180.85
2019-01-30T13:09:57.926Z,98190.16
2019-01-30T13:12:26.143Z,98189.86
2019-01-30T13:14:54.366Z,98191.62
2019-01-30T13:17:22.588Z,98195.59
2019-01-30T13:19:50.787Z,98200.52
2019-01-30T13:22:19.017Z,98195.09
2019-01-30T13:24:47.262Z,98197.47
2019-01-30T13:27:15.678Z,98201.23
2019-01-30T13:29:43.958Z,98215.55
2019-01-30T13:32:12.255Z,98211.30
2019-01-30T13:34:48.810Z,98205.86
2019-01-30T13:37:10.422Z,98203.85
2019-01-30T13:39:38.668Z,98214.73
2019-01-30T13:42:06.873Z,98219.96
2019-01-30T13:44:35.078Z,98227.61
2019-01-30T13:47:03.270Z,98225.40
2019-01-30T13:49:31.485Z,98233.76
2019-01-30T13:51:59.683Z,98241.51
2019-01-30T13:54:27.927Z,98237.36
2019-01-30T13:56:56.135Z,98243.52
2019-01-30T13:59:24.345Z,98246.46
2019-01-30T14:01:52.572Z,98249.45
2019-01-30T14:04:20.784Z,98259.62
2019-01-30T14:06:49.002Z,98260.67
2019-01-30T14:09:17.194Z,98258.77
2019-01-30T14:11:45.450Z,98260.77
2019-01-30T14:14:13.639Z,98264.65
2019-01-30T14:16:41.876Z,98274.47
2019-01-30T14:19:10.080Z,98278.01
2019-01-30T14:21:38.285Z,98287.56
2019-01-30T14:24:06.515Z,98286.51
2019-01-30T14:26:34.723Z,98301.09
2019-01-30T14:29:02.953Z,98305.61
2019-01-30T14:31:31.219Z,98307.27
2019-01-30T14:33:59.623Z,98312.92
2019-01-30T14:36:28.121Z,98321.83
2019-01-30T14:38:56.341Z,98322.23
2019-01-30T14:41:24.581Z,98324.95
2019-01-30T14:43:52.830Z,98335.62
2019-01-30T14:46:21.020Z,98331.75
2019-01-30T14:48:49.255Z,98342.88
2019-01-30T14:51:17.508Z,98343.79
2019-01-30T14:53:45.686Z,98352.09
2019-01-30T14:56:13.954Z,98358.48
2019-01-30T14:58:42.164Z,98356.27
2019-01-30T15:01:10.368Z,98366.20
2019-01-30T15:03:38.604Z,98365.92
2019-01-30T15:06:06.981Z,98372.93
2019-01-30T15:08:35.300Z,98378.58
2019-01-30T15:11:03.533Z,98382.45
2019-01-30T15:13:31.792Z,98388.55
2019-01-30T15:16:00.050Z,98391.27
2019-01-30T15:18:28.300Z,98398.38
2019-01-30T15:20:56.504Z,98402.66
2019-01-30T15:23:24.712Z,98406.23
2019-01-30T15:25:52.968Z,98411.02
2019-01-30T15:28:21.233Z,98416.39
2019-01-30T15:30:49.448Z,98432.08
2019-01-30T15:33:19.531Z,98436.80
2019-01-30T15:35:47.745Z,98447.34
2019-01-30T15:38:15.978Z,98444.83
2019-01-30T15:40:44.207Z,98449.86
2019-01-30T15:43:12.469Z,98458.84
2019-01-30T15:45:40.706Z,98462.61
2019-01-30T15:48:08.931Z,98457.81
2019-01-30T15:50:39.473Z,98465.44
2019-01-30T15:53:10.686Z,98470.47
2019-01-30T15:55:38.972Z,98474.55
2019-01-30T15:58:09.518Z,98480.64
2019-01-30T16:00:53.153Z,98483.81
2019-01-30T16:03:21.364Z,98491.84
2019-01-30T16:05:49.573Z,98495.61
2019-01-30T16:08:17.800Z,98498.13
2019-01-30T16:10:45.988Z,98499.04
2019-01-30T16:13:14.207Z,98510.89
2019-01-30T16:15:51.731Z,98519.45
2019-01-30T16:18:19.940Z,98517.27
2019-01-30T16:20:48.154Z,98518.48
2019-01-30T16:23:16.378Z,98520.25
2019-01-30T16:25:44.631Z,98523.37
2019-01-30T16:28:12.826Z,98527.80
2019-01-30T16:30:42.424Z,98533.55
2019-01-30T16:33:10.962Z,98536.97
2019-01-30T16:35:39.195Z,98533.80
2019-01-30T16:38:07.630Z,98546.05
2019-01-30T16:40:35.955Z,98551.48
2019-01-30T16:43:04.480Z,98556.92
2019-01-30T16:45:33.077Z,98562.06
2019-01-30T16:48:01.296Z,98562.37
2019-01-30T16:50:29.507Z,98568.20
2019-01-30T16:52:57.740Z,98573.84
2019-01-30T16:55:25.956Z,98578.58
2019-01-30T16:57:54.199Z,98587.45
2019-01-30T17:00:31.299Z,98582.40
2019-01-30T17:03:00.168Z,98592.58
2019-01-30T17:05:28.802Z,98591.87
2019-01-30T17:07:57.003Z,98593.63
2019-01-30T17:10:25.221Z,98601.39
2019-01-30T17:12:53.435Z,98600.42
2019-01-30T17:15:27.790Z,98604.16
2019-01-30T17:17:55.991Z,98604.16
2019-01-30T17:20:26.805Z,98608.98
2019-01-30T17:22:55.034Z,98612.32
2019-01-30T17:25:23.238Z,98613.77
2019-01-30T17:27:51.478Z,98615.98
2019-01-30T17:30:37.786Z,98621.07
2019-01-30T17:33:06.013Z,98624.33
2019-01-30T17:35:34.259Z,98624.76
2019-01-30T17:38:02.455Z,98630.73
2019-01-30T17:40:30.731Z,98642.23
2019-01-30T17:42:58.974Z,98642.13
2019-01-30T17:45:27.160Z,98642.33
2019-01-30T17:47:55.409Z,98642.98
2019-01-30T17:50:26.312Z,98645.05
2019-01-30T17:52:54.510Z,98649.98
2019-01-30T17:55:25.887Z,98640.11
2019-01-30T17:57:52.684Z,98648.81
2019-01-30T18:00:25.815Z,98659.69
2019-01-30T18:02:54.012Z,98657.09
2019-01-30T18:05:22.248Z,98659.50
2019-01-30T18:07:50.459Z,98671.00
2019-01-30T18:10:18.693Z,98676.33
2019-01-30T18:12:46.881Z,98687.40
2019-01-30T18:15:15.194Z,98683.13
2019-01-30T18:17:43.420Z,98691.98
2019-01-30T18:20:17.671Z,98696.06
2019-01-30T18:22:45.915Z,98700.49
2019-01-30T18:25:16.046Z,98700.03
2019-01-30T18:27:44.272Z,98704.95
2019-01-30T18:30:15.471Z,98704.95
2019-01-30T18:32:43.829Z,98701.70
2019-01-30T18:35:12.048Z,98703.72
2019-01-30T18:37:40.263Z,98706.95
2019-01-30T18:40:11.488Z,98709.86
2019-01-30T18:42:39.823Z,98713.44
2019-01-30T18:45:11.512Z,98717.52
2019-01-30T18:47:41.447Z,98724.81
2019-01-30T18:50:15.557Z,98725.67
2019-01-30T18:52:43.749Z,98725.67
2019-01-30T18:55:12.348Z,98734.53
2019-01-30T18:57:40.573Z,98733.52
2019-01-30T19:00:15.176Z,98731.42
2019-01-30T19:02:43.478Z,98733.13
2019-01-30T19:05:13.771Z,98737.72
2019-01-30T19:07:41.979Z,98740.62
2019-01-30T19:10:15.890Z,98739.27
2019-01-30T19:12:44.113Z,98745.02
2019-01-30T19:15:17.716Z,98737.21
2019-01-30T19:17:45.922Z,98740.94
2019-01-30T19:20:19.648Z,98739.97
2019-01-30T19:22:47.890Z,98743.03
2019-01-30T19:25:16.073Z,98744.70
2019-01-30T19:27:44.264Z,98747.12
2019-01-30T19:30:18.139Z,98747.12
2019-01-30T19:32:46.332Z,98748.98
2019-01-30T19:35:14.541Z,98752.02
2019-01-30T19:37:42.756Z,98749.84
2019-01-30T19:40:13.108Z,98756.45
2019-01-30T19:42:41.303Z,98750.84
2019-01-30T19:45:23.836Z,98755.44
2019-01-30T19:47:52.038Z,98757.65
2019-01-30T19:50:28.154Z,98765.81
2019-01-30T19:52:56.440Z,98761.22
2019-01-30T19:55:24.647Z,98765.81
2019-01-30T19:57:53.504Z,98765.11
2019-01-30T20:00:24.692Z,98768.02
2019-01-30T20:02:52.903Z,98766.47
2019-01-30T20:05:21.153Z,98774.48
2019-01-30T20:07:49.345Z,98774.16
2019-01-30T20:10:20.379Z,98771.59
2019-01-30T20:12:48.599Z,98770.23
2019-01-30T20:15:16.792Z,98763.94
2019-01-30T20:17:45.023Z,98768.06
2019-01-30T20:20:20.799Z,98761.65
2019-01-30T20:22:47.763Z,98757.19
2019-01-30T20:25:18.520Z,98768.53
2019-01-30T20:27:46.753Z,98767.75
2019-01-30T20:30:17.598Z,98765.53
2019-01-30T20:32:45.883Z,98771.83
2019-01-30T20:35:14.113Z,98774.05
2019-01-30T20:37:42.337Z,98779.67
2019-01-30T20:40:18.993Z,98786.91
2019-01-30T20:42:47.209Z,98790.98
2019-01-30T20:45:15.997Z,98788.80
2019-01-30T20:47:44.209Z,98790.98
2019-01-30T20:50:18.490Z,98793.27
2019-01-30T20:52:46.717Z,98794.44
2019-01-30T20:55:16.755Z,98790.02
2019-01-30T20:57:45.133Z,98790.02
2019-01-30T21:00:16.783Z,98791.18
2019-01-30T21:02:44.997Z,98795.26
2019-01-30T21:05:13.219Z,98794.95
2019-01-30T21:07:41.411Z,98791.05
2019-01-30T21:10:13.057Z,98790.08
2019-01-30T21:12:41.275Z,98793.66
2019-01-30T21:15:12.310Z,98794.47
2019-01-30T21:17:40.531Z,98791.38
2019-01-30T21:20:10.817Z,98802.63
2019-01-30T21:22:39.037Z,98801.94
2019-01-30T21:25:12.945Z,98794.28
2019-01-30T21:27:41.177Z,98790.74
2019-01-30T21:30:15.383Z,98793.58
2019-01-30T21:32:43.601Z,98791.38
2019-01-30T21:35:11.813Z,98793.46
2019-01-30T21:37:48.581Z,98789.19
2019-01-30T21:40:15.490Z,98792.10
2019-01-30T21:42:43.686Z,98796.19
2019-01-30T21:45:17.553Z,98789.89
2019-01-30T21:47:45.748Z,98797.86
2019-01-30T21:50:14.317Z,98793.27
2019-01-30T21:52:42.539Z,98791.44
2019-01-30T21:55:14.199Z,98794.35
2019-01-30T21:57:42.417Z,98793.11
2019-01-30T22:00:14.140Z,98784.52
2019-01-30T22:02:42.406Z,98787.08
2019-01-30T22:05:10.634Z,98781.61
2019-01-30T22:07:38.851Z,98781.45
2019-01-30T22:10:12.999Z,98785.72
2019-01-30T22:12:41.211Z,98783.16
2019-01-30T22:15:11.953Z,98781.45
2019-01-30T22:17:40.180Z,98779.78
2019-01-30T22:20:17.156Z,98783.35
2019-01-30T22:22:45.369Z,98789.11
2019-01-30T22:25:20.326Z,98780.09
2019-01-30T22:27:45.839Z,98784.05
2019-01-30T22:30:19.692Z,98787.43
2019-01-30T22:32:47.927Z,98789.48
2019-01-30T22:35:16.126Z,98792.20
2019-01-30T22:37:44.406Z,98787.81
2019-01-30T22:40:14.066Z,98790.00
2019-01-30T22:42:42.293Z,98790.53
2019-01-30T22:45:18.710Z,98794.45
2019-01-30T22:47:46.931Z,98795.34
2019-01-30T22:50:16.804Z,98789.02
2019-01-30T22:52:45.151Z,98790.56
2019-01-30T22:55:15.439Z,98785.98
2019-01-30T22:57:43.810Z,98785.28
2019-01-30T23:00:51.905Z,98775.23
2019-01-30T23:03:23.602Z,98787.16
2019-01-30T23:06:11.764Z,98784.43
2019-01-30T23:08:58.487Z,98781.05
2019-01-30T23:11:35.973Z,98780.20
2019-01-30T23:14:04.496Z,98777.83
2019-01-30T23:16:52.174Z,98776.97
2019-01-30T23:19:26.362Z,98773.28
2019-01-30T23:22:20.340Z,98771.72
2019-01-30T23:25:25.006Z,98764.42
2019-01-30T23:27:59.330Z,98771.84
2019-01-30T23:30:36.792Z,98766.16
2019-01-30T23:33:23.528Z,98762.41
2019-01-30T23:35:57.602Z,98761.04
2019-01-30T23:38:43.932Z,98759.69
2019-01-30T23:41:18.397Z,98757.34
2019-01-30T23:43:53.028Z,98757.16
2019-01-30T23:46:46.072Z,98752.38
2019-01-30T23:49:26.201Z,98748.81
2019-01-30T23:52:09.716Z,98742.33
2019-01-30T23:54:56.107Z,98742.02
2019-01-30T23:57:33.122Z,98744.92
